sensor_id;sensor_type;location;lat;lon;timestamp;P1;durP1;ratioP1;P2;durP2;ratioP2
23242;SDS011;11790;49.578;11.214;2022-08-19T00:04:50;23.48;;;19.73;;
23242;SDS011;11790;49.578;11.214;2022-08-19T00:09:52;23.73;;;19.23;;
23242;SDS011;11790;49.578;11.214;2022-08-19T00:14:53;22.15;;;18.67;;
23242;SDS011;11790;49.578;11.214;2022-08-19T00:19:54;23.20;;;18.90;;
23242;SDS011;11790;49.578;11.214;2022-08-19T00:24:54;21.25;;;18.67;;
23242;SDS011;11790;49.578;11.214;2022-08-19T00:29:54;23.73;;;18.70;;
23242;SDS011;11790;49.578;11.214;2022-08-19T00:34:54;21.55;;;18.88;;
23242;SDS011;11790;49.578;11.214;2022-08-19T00:39:55;21.60;;;17.97;;
23242;SDS011;11790;49.578;11.214;2022-08-19T00:44:55;22.70;;;17.85;;
23242;SDS011;11790;49.578;11.214;2022-08-19T00:49:56;22.60;;;17.50;;
23242;SDS011;11790;49.578;11.214;2022-08-19T00:54:57;20.17;;;16.90;;
23242;SDS011;11790;49.578;11.214;2022-08-19T00:59:58;20.38;;;16.83;;
23242;SDS011;11790;49.578;11.214;2022-08-19T01:05:00;18.17;;;15.77;;
23242;SDS011;11790;49.578;11.214;2022-08-19T01:10:01;20.35;;;16.67;;
23242;SDS011;11790;49.578;11.214;2022-08-19T01:15:01;20.73;;;16.17;;
23242;SDS011;11790;49.578;11.214;2022-08-19T01:20:02;18.93;;;15.97;;
23242;SDS011;11790;49.578;11.214;2022-08-19T01:25:02;18.48;;;16.08;;
23242;SDS011;11790;49.578;11.214;2022-08-19T01:30:03;20.45;;;16.10;;
23242;SDS011;11790;49.578;11.214;2022-08-19T01:35:03;20.90;;;16.67;;
23242;SDS011;11790;49.578;11.214;2022-08-19T01:40:04;23.67;;;16.70;;
23242;SDS011;11790;49.578;11.214;2022-08-19T01:45:05;20.20;;;16.58;;
23242;SDS011;11790;49.578;11.214;2022-08-19T01:50:06;19.17;;;16.45;;
23242;SDS011;11790;49.578;11.214;2022-08-19T01:55:08;19.13;;;16.73;;
23242;SDS011;11790;49.578;11.214;2022-08-19T02:00:10;22.38;;;17.92;;
23242;SDS011;11790;49.578;11.214;2022-08-19T02:05:12;22.95;;;18.13;;
23242;SDS011;11790;49.578;11.214;2022-08-19T02:10:14;21.23;;;17.87;;
23242;SDS011;11790;49.578;11.214;2022-08-19T02:15:16;20.63;;;17.95;;
23242;SDS011;11790;49.578;11.214;2022-08-19T02:20:16;20.48;;;17.23;;
23242;SDS011;11790;49.578;11.214;2022-08-19T02:25:17;21.33;;;17.27;;
23242;SDS011;11790;49.578;11.214;2022-08-19T02:30:17;21.35;;;17.67;;
23242;SDS011;11790;49.578;11.214;2022-08-19T02:35:19;22.50;;;18.15;;
23242;SDS011;11790;49.578;11.214;2022-08-19T02:40:19;20.20;;;16.67;;
23242;SDS011;11790;49.578;11.214;2022-08-19T02:45:19;19.73;;;16.87;;
23242;SDS011;11790;49.578;11.214;2022-08-19T02:50:19;22.87;;;16.90;;
23242;SDS011;11790;49.578;11.214;2022-08-19T02:55:20;20.70;;;17.92;;
23242;SDS011;11790;49.578;11.214;2022-08-19T03:00:20;21.48;;;16.83;;
23242;SDS011;11790;49.578;11.214;2022-08-19T03:05:21;22.45;;;17.48;;
23242;SDS011;11790;49.578;11.214;2022-08-19T03:10:21;21.52;;;17.25;;
23242;SDS011;11790;49.578;11.214;2022-08-19T03:15:21;22.37;;;16.43;;
23242;SDS011;11790;49.578;11.214;2022-08-19T03:20:21;20.38;;;18.13;;
23242;SDS011;11790;49.578;11.214;2022-08-19T03:25:22;21.33;;;17.27;;
23242;SDS011;11790;49.578;11.214;2022-08-19T03:30:22;23.73;;;19.13;;
23242;SDS011;11790;49.578;11.214;2022-08-19T03:35:22;21.85;;;17.92;;
23242;SDS011;11790;49.578;11.214;2022-08-19T03:40:22;22.17;;;17.75;;
23242;SDS011;11790;49.578;11.214;2022-08-19T03:45:23;22.77;;;17.67;;
23242;SDS011;11790;49.578;11.214;2022-08-19T03:50:23;24.65;;;18.77;;
23242;SDS011;11790;49.578;11.214;2022-08-19T03:55:24;25.88;;;19.10;;
23242;SDS011;11790;49.578;11.214;2022-08-19T04:00:24;21.85;;;17.23;;
23242;SDS011;11790;49.578;11.214;2022-08-19T04:05:25;22.50;;;17.17;;
23242;SDS011;11790;49.578;11.214;2022-08-19T04:10:27;21.92;;;18.20;;
23242;SDS011;11790;49.578;11.214;2022-08-19T04:15:28;21.20;;;17.13;;
23242;SDS011;11790;49.578;11.214;2022-08-19T04:20:38;21.27;;;16.92;;
23242;SDS011;11790;49.578;11.214;2022-08-19T04:25:42;21.10;;;17.50;;
23242;SDS011;11790;49.578;11.214;2022-08-19T04:30:44;23.23;;;16.65;;
23242;SDS011;11790;49.578;11.214;2022-08-19T04:35:45;21.13;;;16.67;;
23242;SDS011;11790;49.578;11.214;2022-08-19T04:40:47;19.83;;;16.73;;
23242;SDS011;11790;49.578;11.214;2022-08-19T04:46:08;20.85;;;16.75;;
23242;SDS011;11790;49.578;11.214;2022-08-19T04:51:09;23.83;;;17.45;;
23242;SDS011;11790;49.578;11.214;2022-08-19T04:56:10;21.58;;;17.85;;
23242;SDS011;11790;49.578;11.214;2022-08-19T05:01:17;21.50;;;18.13;;
23242;SDS011;11790;49.578;11.214;2022-08-19T05:06:18;22.23;;;17.83;;
23242;SDS011;11790;49.578;11.214;2022-08-19T05:11:20;19.15;;;16.60;;
23242;SDS011;11790;49.578;11.214;2022-08-19T05:16:21;22.02;;;17.30;;
23242;SDS011;11790;49.578;11.214;2022-08-19T05:21:22;18.80;;;16.10;;
23242;SDS011;11790;49.578;11.214;2022-08-19T05:26:42;21.48;;;17.52;;
23242;SDS011;11790;49.578;11.214;2022-08-19T05:31:43;22.27;;;18.30;;
23242;SDS011;11790;49.578;11.214;2022-08-19T05:36:45;22.70;;;17.38;;
23242;SDS011;11790;49.578;11.214;2022-08-19T05:41:46;23.48;;;18.33;;
23242;SDS011;11790;49.578;11.214;2022-08-19T05:46:47;22.10;;;17.98;;
23242;SDS011;11790;49.578;11.214;2022-08-19T05:51:48;19.20;;;17.15;;
23242;SDS011;11790;49.578;11.214;2022-08-19T05:56:49;21.98;;;17.98;;
23242;SDS011;11790;49.578;11.214;2022-08-19T06:01:50;18.80;;;15.85;;
23242;SDS011;11790;49.578;11.214;2022-08-19T06:06:51;19.13;;;15.43;;
23242;SDS011;11790;49.578;11.214;2022-08-19T06:11:53;17.88;;;15.98;;
23242;SDS011;11790;49.578;11.214;2022-08-19T06:16:53;17.58;;;15.07;;
23242;SDS011;11790;49.578;11.214;2022-08-19T06:21:53;17.30;;;14.73;;
23242;SDS011;11790;49.578;11.214;2022-08-19T06:26:54;16.33;;;12.27;;
23242;SDS011;11790;49.578;11.214;2022-08-19T06:31:56;16.88;;;12.93;;
23242;SDS011;11790;49.578;11.214;2022-08-19T06:36:57;16.95;;;13.05;;
23242;SDS011;11790;49.578;11.214;2022-08-19T06:42:02;15.32;;;12.43;;
23242;SDS011;11790;49.578;11.214;2022-08-19T06:47:03;13.95;;;12.00;;
23242;SDS011;11790;49.578;11.214;2022-08-19T06:52:04;14.48;;;11.45;;
23242;SDS011;11790;49.578;11.214;2022-08-19T06:57:05;12.63;;;10.60;;
23242;SDS011;11790;49.578;11.214;2022-08-19T07:02:06;14.60;;;11.57;;
23242;SDS011;11790;49.578;11.214;2022-08-19T07:07:08;14.15;;;11.52;;
23242;SDS011;11790;49.578;11.214;2022-08-19T07:12:10;12.82;;;10.95;;
23242;SDS011;11790;49.578;11.214;2022-08-19T07:17:10;10.98;;;9.82;;
23242;SDS011;11790;49.578;11.214;2022-08-19T07:22:11;12.63;;;10.63;;
23242;SDS011;11790;49.578;11.214;2022-08-19T07:27:13;14.18;;;11.60;;
23242;SDS011;11790;49.578;11.214;2022-08-19T07:32:13;15.23;;;12.30;;
23242;SDS011;11790;49.578;11.214;2022-08-19T07:37:13;19.63;;;15.50;;
23242;SDS011;11790;49.578;11.214;2022-08-19T07:42:14;22.92;;;13.30;;
23242;SDS011;11790;49.578;11.214;2022-08-19T07:47:14;19.65;;;13.52;;
23242;SDS011;11790;49.578;11.214;2022-08-19T07:52:15;18.80;;;13.40;;
23242;SDS011;11790;49.578;11.214;2022-08-19T07:57:16;17.80;;;14.57;;
23242;SDS011;11790;49.578;11.214;2022-08-19T08:02:17;21.63;;;14.88;;
23242;SDS011;11790;49.578;11.214;2022-08-19T08:07:17;21.23;;;14.23;;
23242;SDS011;11790;49.578;11.214;2022-08-19T08:12:37;21.17;;;15.90;;
23242;SDS011;11790;49.578;11.214;2022-08-19T08:17:41;25.40;;;18.85;;
23242;SDS011;11790;49.578;11.214;2022-08-19T08:22:45;26.27;;;18.77;;
23242;SDS011;11790;49.578;11.214;2022-08-19T08:28:04;20.45;;;15.30;;
23242;SDS011;11790;49.578;11.214;2022-08-19T08:33:04;22.55;;;16.27;;
23242;SDS011;11790;49.578;11.214;2022-08-19T08:38:05;22.40;;;16.33;;
23242;SDS011;11790;49.578;11.214;2022-08-19T08:43:51;22.17;;;15.82;;
23242;SDS011;11790;49.578;11.214;2022-08-19T08:48:50;18.83;;;15.13;;
23242;SDS011;11790;49.578;11.214;2022-08-19T08:53:47;19.17;;;14.18;;
23242;SDS011;11790;49.578;11.214;2022-08-19T08:59:20;20.02;;;14.45;;
23242;SDS011;11790;49.578;11.214;2022-08-19T09:04:12;34.45;;;24.33;;
23242;SDS011;11790;49.578;11.214;2022-08-19T09:09:16;30.95;;;22.08;;
23242;SDS011;11790;49.578;11.214;2022-08-19T09:14:39;20.77;;;16.33;;
23242;SDS011;11790;49.578;11.214;2022-08-19T09:25:11;23.35;;;13.30;;
23242;SDS011;11790;49.578;11.214;2022-08-19T09:30:22;15.98;;;13.48;;
23242;SDS011;11790;49.578;11.214;2022-08-19T09:35:24;18.13;;;13.70;;
23242;SDS011;11790;49.578;11.214;2022-08-19T09:40:28;15.45;;;12.07;;
23242;SDS011;11790;49.578;11.214;2022-08-19T09:45:29;15.10;;;12.48;;
23242;SDS011;11790;49.578;11.214;2022-08-19T09:50:29;15.93;;;12.52;;
23242;SDS011;11790;49.578;11.214;2022-08-19T09:55:32;21.70;;;15.82;;
23242;SDS011;11790;49.578;11.214;2022-08-19T10:00:32;24.77;;;19.13;;
23242;SDS011;11790;49.578;11.214;2022-08-19T10:05:33;26.95;;;18.65;;
23242;SDS011;11790;49.578;11.214;2022-08-19T10:10:49;24.85;;;18.52;;
23242;SDS011;11790;49.578;11.214;2022-08-19T10:15:50;27.65;;;18.80;;
23242;SDS011;11790;49.578;11.214;2022-08-19T10:20:51;26.52;;;18.98;;
23242;SDS011;11790;49.578;11.214;2022-08-19T10:25:54;24.85;;;19.08;;
23242;SDS011;11790;49.578;11.214;2022-08-19T10:30:54;26.63;;;18.63;;
23242;SDS011;11790;49.578;11.214;2022-08-19T10:36:02;24.92;;;18.10;;
23242;SDS011;11790;49.578;11.214;2022-08-19T10:41:09;23.65;;;16.95;;
23242;SDS011;11790;49.578;11.214;2022-08-19T10:46:11;24.92;;;17.92;;
23242;SDS011;11790;49.578;11.214;2022-08-19T10:51:12;20.98;;;16.33;;
23242;SDS011;11790;49.578;11.214;2022-08-19T10:56:31;26.38;;;19.20;;
23242;SDS011;11790;49.578;11.214;2022-08-19T11:01:50;24.35;;;17.40;;
23242;SDS011;11790;49.578;11.214;2022-08-19T11:06:51;20.25;;;16.38;;
23242;SDS011;11790;49.578;11.214;2022-08-19T11:11:52;20.13;;;16.27;;
23242;SDS011;11790;49.578;11.214;2022-08-19T11:16:53;19.42;;;16.90;;
23242;SDS011;11790;49.578;11.214;2022-08-19T11:21:56;21.10;;;16.02;;
23242;SDS011;11790;49.578;11.214;2022-08-19T11:27:00;19.83;;;14.75;;
23242;SDS011;11790;49.578;11.214;2022-08-19T11:32:03;19.42;;;14.73;;
23242;SDS011;11790;49.578;11.214;2022-08-19T11:37:05;25.50;;;15.65;;
23242;SDS011;11790;49.578;11.214;2022-08-19T11:42:06;19.55;;;14.88;;
23242;SDS011;11790;49.578;11.214;2022-08-19T11:47:26;19.25;;;15.18;;
23242;SDS011;11790;49.578;11.214;2022-08-19T11:52:26;16.90;;;14.23;;
23242;SDS011;11790;49.578;11.214;2022-08-19T11:57:27;17.20;;;14.18;;
23242;SDS011;11790;49.578;11.214;2022-08-19T12:02:27;20.25;;;13.68;;
23242;SDS011;11790;49.578;11.214;2022-08-19T12:07:27;14.88;;;13.02;;
23242;SDS011;11790;49.578;11.214;2022-08-19T12:12:27;15.77;;;13.05;;
23242;SDS011;11790;49.578;11.214;2022-08-19T12:17:28;20.03;;;14.03;;
23242;SDS011;11790;49.578;11.214;2022-08-19T12:22:28;17.45;;;13.55;;
23242;SDS011;11790;49.578;11.214;2022-08-19T12:27:28;19.83;;;13.77;;
23242;SDS011;11790;49.578;11.214;2022-08-19T12:32:29;17.90;;;14.35;;
23242;SDS011;11790;49.578;11.214;2022-08-19T12:37:29;17.37;;;13.77;;
23242;SDS011;11790;49.578;11.214;2022-08-19T12:42:30;18.83;;;14.70;;
23242;SDS011;11790;49.578;11.214;2022-08-19T12:47:30;17.00;;;14.27;;
23242;SDS011;11790;49.578;11.214;2022-08-19T12:52:31;20.52;;;14.45;;
23242;SDS011;11790;49.578;11.214;2022-08-19T12:57:32;18.20;;;15.23;;
23242;SDS011;11790;49.578;11.214;2022-08-19T13:02:34;20.52;;;14.55;;
23242;SDS011;11790;49.578;11.214;2022-08-19T13:07:35;16.10;;;14.38;;
23242;SDS011;11790;49.578;11.214;2022-08-19T13:12:35;22.15;;;14.23;;
23242;SDS011;11790;49.578;11.214;2022-08-19T13:17:36;20.63;;;15.57;;
23242;SDS011;11790;49.578;11.214;2022-08-19T13:22:36;16.83;;;13.93;;
23242;SDS011;11790;49.578;11.214;2022-08-19T13:27:37;18.58;;;15.05;;
23242;SDS011;11790;49.578;11.214;2022-08-19T13:32:37;17.15;;;14.20;;
23242;SDS011;11790;49.578;11.214;2022-08-19T13:37:56;10.90;;;9.38;;
23242;SDS011;11790;49.578;11.214;2022-08-19T13:42:57;9.10;;;7.90;;
23242;SDS011;11790;49.578;11.214;2022-08-19T13:47:57;8.63;;;7.38;;
23242;SDS011;11790;49.578;11.214;2022-08-19T13:52:58;8.23;;;6.80;;
23242;SDS011;11790;49.578;11.214;2022-08-19T13:57:59;9.70;;;6.32;;
23242;SDS011;11790;49.578;11.214;2022-08-19T14:03:00;7.38;;;6.13;;
23242;SDS011;11790;49.578;11.214;2022-08-19T14:08:00;7.60;;;6.63;;
23242;SDS011;11790;49.578;11.214;2022-08-19T14:13:02;9.60;;;6.87;;
23242;SDS011;11790;49.578;11.214;2022-08-19T14:18:03;7.88;;;6.45;;
23242;SDS011;11790;49.578;11.214;2022-08-19T14:23:03;9.52;;;6.75;;
23242;SDS011;11790;49.578;11.214;2022-08-19T14:28:06;10.88;;;6.72;;
23242;SDS011;11790;49.578;11.214;2022-08-19T14:33:07;9.68;;;7.18;;
23242;SDS011;11790;49.578;11.214;2022-08-19T14:38:12;10.52;;;7.47;;
23242;SDS011;11790;49.578;11.214;2022-08-19T14:43:14;9.00;;;7.38;;
23242;SDS011;11790;49.578;11.214;2022-08-19T14:48:14;9.15;;;7.32;;
23242;SDS011;11790;49.578;11.214;2022-08-19T14:53:15;9.45;;;7.60;;
23242;SDS011;11790;49.578;11.214;2022-08-19T14:58:15;10.38;;;7.65;;
23242;SDS011;11790;49.578;11.214;2022-08-19T15:03:16;9.57;;;7.53;;
23242;SDS011;11790;49.578;11.214;2022-08-19T15:08:16;8.75;;;7.45;;
23242;SDS011;11790;49.578;11.214;2022-08-19T15:13:16;11.10;;;7.88;;
23242;SDS011;11790;49.578;11.214;2022-08-19T15:18:17;11.00;;;8.90;;
23242;SDS011;11790;49.578;11.214;2022-08-19T15:23:17;14.68;;;9.15;;
23242;SDS011;11790;49.578;11.214;2022-08-19T15:28:18;15.02;;;10.25;;
23242;SDS011;11790;49.578;11.214;2022-08-19T15:33:18;12.68;;;10.80;;
23242;SDS011;11790;49.578;11.214;2022-08-19T15:38:19;13.63;;;11.52;;
23242;SDS011;11790;49.578;11.214;2022-08-19T15:43:21;17.27;;;11.70;;
23242;SDS011;11790;49.578;11.214;2022-08-19T15:48:21;13.50;;;11.43;;
23242;SDS011;11790;49.578;11.214;2022-08-19T15:53:21;18.15;;;13.73;;
23242;SDS011;11790;49.578;11.214;2022-08-19T15:58:21;17.77;;;13.53;;
23242;SDS011;11790;49.578;11.214;2022-08-19T16:03:41;18.38;;;14.55;;
23242;SDS011;11790;49.578;11.214;2022-08-19T16:09:00;23.58;;;16.05;;
23242;SDS011;11790;49.578;11.214;2022-08-19T16:14:01;22.55;;;16.00;;
23242;SDS011;11790;49.578;11.214;2022-08-19T16:19:03;24.83;;;17.40;;
23242;SDS011;11790;49.578;11.214;2022-08-19T16:24:05;21.27;;;16.92;;
23242;SDS011;11790;49.578;11.214;2022-08-19T16:29:06;20.50;;;15.98;;
23242;SDS011;11790;49.578;11.214;2022-08-19T16:34:09;21.63;;;16.50;;
23242;SDS011;11790;49.578;11.214;2022-08-19T16:39:10;19.98;;;15.77;;
23242;SDS011;11790;49.578;11.214;2022-08-19T16:44:12;23.48;;;16.70;;
23242;SDS011;11790;49.578;11.214;2022-08-19T16:49:13;24.90;;;16.70;;
23242;SDS011;11790;49.578;11.214;2022-08-19T16:54:13;22.90;;;16.52;;
23242;SDS011;11790;49.578;11.214;2022-08-19T16:59:14;23.25;;;17.48;;
23242;SDS011;11790;49.578;11.214;2022-08-19T17:04:15;21.67;;;16.48;;
23242;SDS011;11790;49.578;11.214;2022-08-19T17:09:15;21.63;;;16.45;;
23242;SDS011;11790;49.578;11.214;2022-08-19T17:14:17;16.85;;;13.77;;
23242;SDS011;11790;49.578;11.214;2022-08-19T17:19:18;17.50;;;13.18;;
23242;SDS011;11790;49.578;11.214;2022-08-19T17:24:19;16.70;;;12.90;;
23242;SDS011;11790;49.578;11.214;2022-08-19T17:29:20;16.23;;;11.70;;
23242;SDS011;11790;49.578;11.214;2022-08-19T17:34:21;13.65;;;12.10;;
23242;SDS011;11790;49.578;11.214;2022-08-19T17:39:21;14.93;;;11.73;;
23242;SDS011;11790;49.578;11.214;2022-08-19T17:44:21;18.10;;;12.60;;
23242;SDS011;11790;49.578;11.214;2022-08-19T17:49:22;15.77;;;11.68;;
23242;SDS011;11790;49.578;11.214;2022-08-19T17:54:22;14.70;;;11.85;;
23242;SDS011;11790;49.578;11.214;2022-08-19T17:59:23;14.48;;;11.23;;
23242;SDS011;11790;49.578;11.214;2022-08-19T18:04:24;13.35;;;10.30;;
23242;SDS011;11790;49.578;11.214;2022-08-19T18:09:25;12.73;;;10.23;;
23242;SDS011;11790;49.578;11.214;2022-08-19T18:14:27;13.35;;;9.98;;
23242;SDS011;11790;49.578;11.214;2022-08-19T18:19:27;10.43;;;8.77;;
23242;SDS011;11790;49.578;11.214;2022-08-19T18:24:28;9.18;;;7.60;;
23242;SDS011;11790;49.578;11.214;2022-08-19T18:29:28;9.40;;;7.83;;
23242;SDS011;11790;49.578;11.214;2022-08-19T18:34:34;10.45;;;7.75;;
23242;SDS011;11790;49.578;11.214;2022-08-19T18:39:35;10.68;;;7.68;;
23242;SDS011;11790;49.578;11.214;2022-08-19T18:44:54;9.73;;;7.35;;
23242;SDS011;11790;49.578;11.214;2022-08-19T18:50:12;11.15;;;7.97;;
23242;SDS011;11790;49.578;11.214;2022-08-19T18:55:13;12.30;;;8.88;;
23242;SDS011;11790;49.578;11.214;2022-08-19T19:00:14;10.32;;;7.70;;
23242;SDS011;11790;49.578;11.214;2022-08-19T19:05:15;7.40;;;6.30;;
23242;SDS011;11790;49.578;11.214;2022-08-19T19:10:15;9.73;;;7.13;;
23242;SDS011;11790;49.578;11.214;2022-08-19T19:15:16;8.55;;;6.63;;
23242;SDS011;11790;49.578;11.214;2022-08-19T19:20:20;8.35;;;6.82;;
23242;SDS011;11790;49.578;11.214;2022-08-19T19:25:21;10.15;;;6.93;;
23242;SDS011;11790;49.578;11.214;2022-08-19T19:30:21;8.57;;;6.80;;
23242;SDS011;11790;49.578;11.214;2022-08-19T19:35:24;9.35;;;6.10;;
23242;SDS011;11790;49.578;11.214;2022-08-19T19:40:25;8.20;;;6.78;;
23242;SDS011;11790;49.578;11.214;2022-08-19T19:45:26;9.82;;;6.30;;
23242;SDS011;11790;49.578;11.214;2022-08-19T19:50:29;7.53;;;5.07;;
23242;SDS011;11790;49.578;11.214;2022-08-19T19:55:30;7.68;;;5.43;;
23242;SDS011;11790;49.578;11.214;2022-08-19T20:00:30;6.85;;;5.28;;
23242;SDS011;11790;49.578;11.214;2022-08-19T20:05:30;5.68;;;4.90;;
23242;SDS011;11790;49.578;11.214;2022-08-19T20:10:30;7.32;;;4.93;;
23242;SDS011;11790;49.578;11.214;2022-08-19T20:15:31;6.38;;;4.68;;
23242;SDS011;11790;49.578;11.214;2022-08-19T20:20:31;6.75;;;4.65;;
23242;SDS011;11790;49.578;11.214;2022-08-19T20:25:32;7.93;;;5.32;;
23242;SDS011;11790;49.578;11.214;2022-08-19T20:30:32;8.30;;;4.95;;
23242;SDS011;11790;49.578;11.214;2022-08-19T20:35:34;7.15;;;5.13;;
23242;SDS011;11790;49.578;11.214;2022-08-19T20:40:35;6.60;;;5.45;;
23242;SDS011;11790;49.578;11.214;2022-08-19T20:45:36;7.88;;;5.20;;
23242;SDS011;11790;49.578;11.214;2022-08-19T20:50:37;9.20;;;5.90;;
23242;SDS011;11790;49.578;11.214;2022-08-19T20:55:38;7.50;;;5.53;;
23242;SDS011;11790;49.578;11.214;2022-08-19T21:00:38;7.88;;;6.05;;
23242;SDS011;11790;49.578;11.214;2022-08-19T21:05:39;6.80;;;5.93;;
23242;SDS011;11790;49.578;11.214;2022-08-19T21:10:39;8.15;;;6.43;;
23242;SDS011;11790;49.578;11.214;2022-08-19T21:15:40;7.18;;;6.13;;
23242;SDS011;11790;49.578;11.214;2022-08-19T21:20:42;7.72;;;6.28;;
23242;SDS011;11790;49.578;11.214;2022-08-19T21:25:43;9.43;;;6.22;;
23242;SDS011;11790;49.578;11.214;2022-08-19T21:30:43;7.93;;;6.20;;
23242;SDS011;11790;49.578;11.214;2022-08-19T21:35:43;8.07;;;5.93;;
23242;SDS011;11790;49.578;11.214;2022-08-19T21:40:44;10.43;;;7.07;;
23242;SDS011;11790;49.578;11.214;2022-08-19T21:45:44;10.75;;;6.45;;
23242;SDS011;11790;49.578;11.214;2022-08-19T21:50:46;10.05;;;6.55;;
23242;SDS011;11790;49.578;11.214;2022-08-19T21:55:46;9.93;;;6.72;;
23242;SDS011;11790;49.578;11.214;2022-08-19T22:00:46;7.88;;;6.22;;
23242;SDS011;11790;49.578;11.214;2022-08-19T22:05:46;9.10;;;6.95;;
23242;SDS011;11790;49.578;11.214;2022-08-19T22:10:47;9.63;;;6.97;;
23242;SDS011;11790;49.578;11.214;2022-08-19T22:15:48;10.25;;;7.18;;
23242;SDS011;11790;49.578;11.214;2022-08-19T22:20:50;8.57;;;7.22;;
23242;SDS011;11790;49.578;11.214;2022-08-19T22:25:50;7.38;;;5.97;;
23242;SDS011;11790;49.578;11.214;2022-08-19T22:30:50;8.63;;;6.43;;
23242;SDS011;11790;49.578;11.214;2022-08-19T22:35:51;9.43;;;6.47;;
23242;SDS011;11790;49.578;11.214;2022-08-19T22:40:52;8.85;;;6.75;;
23242;SDS011;11790;49.578;11.214;2022-08-19T22:45:53;7.43;;;6.45;;
23242;SDS011;11790;49.578;11.214;2022-08-19T22:50:54;13.93;;;6.85;;
23242;SDS011;11790;49.578;11.214;2022-08-19T22:56:13;9.00;;;7.15;;
23242;SDS011;11790;49.578;11.214;2022-08-19T23:01:14;8.63;;;7.03;;
23242;SDS011;11790;49.578;11.214;2022-08-19T23:06:15;9.65;;;7.55;;
23242;SDS011;11790;49.578;11.214;2022-08-19T23:11:16;13.23;;;7.88;;
23242;SDS011;11790;49.578;11.214;2022-08-19T23:16:16;9.55;;;7.70;;
23242;SDS011;11790;49.578;11.214;2022-08-19T23:21:16;10.38;;;7.68;;
23242;SDS011;11790;49.578;11.214;2022-08-19T23:26:18;12.82;;;7.60;;
23242;SDS011;11790;49.578;11.214;2022-08-19T23:31:18;8.95;;;7.75;;
23242;SDS011;11790;49.578;11.214;2022-08-19T23:36:20;10.05;;;7.68;;
23242;SDS011;11790;49.578;11.214;2022-08-19T23:41:21;15.13;;;8.20;;
23242;SDS011;11790;49.578;11.214;2022-08-19T23:46:22;11.13;;;8.13;;
23242;SDS011;11790;49.578;11.214;2022-08-19T23:51:22;9.73;;;7.93;;
23242;SDS011;11790;49.578;11.214;2022-08-19T23:56:23;11.85;;;8.05;;
